sensor_id;sensor_type;location;lat;lon;timestamp;P1;durP1;ratioP1;P2;durP2;ratioP2
17598;SDS011;8918;52.092;5.232;2023-02-15T00:01:31;34.93;;;21.57;;
17598;SDS011;8918;52.092;5.232;2023-02-15T00:03:58;33.33;;;22.23;;
17598;SDS011;8918;52.092;5.232;2023-02-15T00:06:24;37.97;;;22.60;;
17598;SDS011;8918;52.092;5.232;2023-02-15T00:08:49;36.33;;;22.63;;
17598;SDS011;8918;52.092;5.232;2023-02-15T00:11:16;35.13;;;22.40;;
17598;SDS011;8918;52.092;5.232;2023-02-15T00:14:12;32.67;;;21.10;;
17598;SDS011;8918;52.092;5.232;2023-02-15T00:16:40;35.73;;;22.23;;
17598;SDS011;8918;52.092;5.232;2023-02-15T00:19:08;36.63;;;21.60;;
17598;SDS011;8918;52.092;5.232;2023-02-15T00:21:34;35.77;;;22.70;;
17598;SDS011;8918;52.092;5.232;2023-02-15T00:24:01;33.67;;;21.87;;
17598;SDS011;8918;52.092;5.232;2023-02-15T00:26:28;37.80;;;22.17;;
17598;SDS011;8918;52.092;5.232;2023-02-15T00:28:54;38.93;;;24.03;;
17598;SDS011;8918;52.092;5.232;2023-02-15T00:31:21;34.57;;;22.07;;
17598;SDS011;8918;52.092;5.232;2023-02-15T00:33:46;36.10;;;20.87;;
17598;SDS011;8918;52.092;5.232;2023-02-15T00:36:12;34.57;;;21.33;;
17598;SDS011;8918;52.092;5.232;2023-02-15T00:38:38;36.37;;;21.57;;
17598;SDS011;8918;52.092;5.232;2023-02-15T00:41:04;34.60;;;21.53;;
17598;SDS011;8918;52.092;5.232;2023-02-15T00:43:32;34.30;;;21.87;;
17598;SDS011;8918;52.092;5.232;2023-02-15T00:45:58;35.43;;;21.50;;
17598;SDS011;8918;52.092;5.232;2023-02-15T00:48:25;34.67;;;21.70;;
17598;SDS011;8918;52.092;5.232;2023-02-15T00:50:51;37.97;;;22.27;;
17598;SDS011;8918;52.092;5.232;2023-02-15T00:53:18;33.10;;;20.47;;
17598;SDS011;8918;52.092;5.232;2023-02-15T00:55:44;33.63;;;20.93;;
17598;SDS011;8918;52.092;5.232;2023-02-15T00:58:10;37.10;;;22.00;;
17598;SDS011;8918;52.092;5.232;2023-02-15T01:00:36;34.10;;;22.20;;
17598;SDS011;8918;52.092;5.232;2023-02-15T01:03:03;36.87;;;22.73;;
17598;SDS011;8918;52.092;5.232;2023-02-15T01:05:29;34.30;;;21.97;;
17598;SDS011;8918;52.092;5.232;2023-02-15T01:07:56;34.73;;;21.40;;
17598;SDS011;8918;52.092;5.232;2023-02-15T01:10:22;34.40;;;20.70;;
17598;SDS011;8918;52.092;5.232;2023-02-15T01:12:49;37.47;;;21.37;;
17598;SDS011;8918;52.092;5.232;2023-02-15T01:15:15;37.17;;;22.00;;
17598;SDS011;8918;52.092;5.232;2023-02-15T01:17:41;34.67;;;21.40;;
17598;SDS011;8918;52.092;5.232;2023-02-15T01:20:09;31.60;;;20.40;;
17598;SDS011;8918;52.092;5.232;2023-02-15T01:22:34;37.03;;;21.70;;
17598;SDS011;8918;52.092;5.232;2023-02-15T01:25:00;34.73;;;20.60;;
17598;SDS011;8918;52.092;5.232;2023-02-15T01:27:25;32.10;;;20.33;;
17598;SDS011;8918;52.092;5.232;2023-02-15T01:29:51;36.87;;;21.40;;
17598;SDS011;8918;52.092;5.232;2023-02-15T01:32:16;34.87;;;21.33;;
17598;SDS011;8918;52.092;5.232;2023-02-15T01:34:42;35.40;;;21.87;;
17598;SDS011;8918;52.092;5.232;2023-02-15T01:37:08;34.17;;;21.60;;
17598;SDS011;8918;52.092;5.232;2023-02-15T01:39:33;34.20;;;21.63;;
17598;SDS011;8918;52.092;5.232;2023-02-15T01:41:59;36.70;;;22.20;;
17598;SDS011;8918;52.092;5.232;2023-02-15T01:47:15;35.10;;;21.83;;
17598;SDS011;8918;52.092;5.232;2023-02-15T01:49:45;37.30;;;22.67;;
17598;SDS011;8918;52.092;5.232;2023-02-15T01:52:13;34.63;;;21.27;;
17598;SDS011;8918;52.092;5.232;2023-02-15T01:54:42;38.50;;;22.30;;
17598;SDS011;8918;52.092;5.232;2023-02-15T01:57:13;36.33;;;22.07;;
17598;SDS011;8918;52.092;5.232;2023-02-15T01:59:43;35.83;;;21.17;;
17598;SDS011;8918;52.092;5.232;2023-02-15T02:02:12;36.47;;;21.97;;
17598;SDS011;8918;52.092;5.232;2023-02-15T02:07:12;33.47;;;20.63;;
17598;SDS011;8918;52.092;5.232;2023-02-15T02:09:41;35.63;;;21.33;;
17598;SDS011;8918;52.092;5.232;2023-02-15T02:12:07;35.97;;;22.73;;
17598;SDS011;8918;52.092;5.232;2023-02-15T02:14:33;33.33;;;20.93;;
17598;SDS011;8918;52.092;5.232;2023-02-15T02:17:15;36.30;;;21.67;;
17598;SDS011;8918;52.092;5.232;2023-02-15T02:22:53;35.43;;;21.10;;
17598;SDS011;8918;52.092;5.232;2023-02-15T02:25:44;37.03;;;20.70;;
17598;SDS011;8918;52.092;5.232;2023-02-15T02:33:32;34.53;;;20.20;;
17598;SDS011;8918;52.092;5.232;2023-02-15T02:39:00;34.30;;;19.20;;
17598;SDS011;8918;52.092;5.232;2023-02-15T02:44:31;35.00;;;20.10;;
17598;SDS011;8918;52.092;5.232;2023-02-15T02:47:34;35.87;;;19.93;;
17598;SDS011;8918;52.092;5.232;2023-02-15T02:49:58;31.77;;;19.63;;
17598;SDS011;8918;52.092;5.232;2023-02-15T02:55:02;33.27;;;19.30;;
17598;SDS011;8918;52.092;5.232;2023-02-15T02:57:30;33.87;;;19.57;;
17598;SDS011;8918;52.092;5.232;2023-02-15T02:59:58;31.07;;;20.20;;
17598;SDS011;8918;52.092;5.232;2023-02-15T03:02:29;31.10;;;19.23;;
17598;SDS011;8918;52.092;5.232;2023-02-15T03:05:02;30.87;;;19.27;;
17598;SDS011;8918;52.092;5.232;2023-02-15T03:07:31;35.63;;;20.33;;
17598;SDS011;8918;52.092;5.232;2023-02-15T03:10:02;33.10;;;19.53;;
17598;SDS011;8918;52.092;5.232;2023-02-15T03:12:33;34.33;;;21.10;;
17598;SDS011;8918;52.092;5.232;2023-02-15T03:15:03;33.87;;;20.77;;
17598;SDS011;8918;52.092;5.232;2023-02-15T03:17:40;33.60;;;19.37;;
17598;SDS011;8918;52.092;5.232;2023-02-15T03:20:11;32.27;;;20.17;;
17598;SDS011;8918;52.092;5.232;2023-02-15T03:22:42;35.10;;;20.23;;
17598;SDS011;8918;52.092;5.232;2023-02-15T03:25:25;33.70;;;20.73;;
17598;SDS011;8918;52.092;5.232;2023-02-15T03:28:01;35.27;;;20.77;;
17598;SDS011;8918;52.092;5.232;2023-02-15T03:30:31;33.37;;;20.33;;
17598;SDS011;8918;52.092;5.232;2023-02-15T03:32:59;32.73;;;20.23;;
17598;SDS011;8918;52.092;5.232;2023-02-15T03:35:30;34.40;;;20.17;;
17598;SDS011;8918;52.092;5.232;2023-02-15T03:38:04;33.43;;;19.50;;
17598;SDS011;8918;52.092;5.232;2023-02-15T03:40:34;35.63;;;21.10;;
17598;SDS011;8918;52.092;5.232;2023-02-15T03:48:55;34.00;;;19.83;;
17598;SDS011;8918;52.092;5.232;2023-02-15T03:51:33;34.07;;;20.13;;
17598;SDS011;8918;52.092;5.232;2023-02-15T03:54:10;31.53;;;19.60;;
17598;SDS011;8918;52.092;5.232;2023-02-15T03:57:07;36.70;;;20.23;;
17598;SDS011;8918;52.092;5.232;2023-02-15T03:59:58;33.63;;;20.47;;
17598;SDS011;8918;52.092;5.232;2023-02-15T04:05:35;32.70;;;19.43;;
17598;SDS011;8918;52.092;5.232;2023-02-15T04:08:01;33.33;;;19.63;;
17598;SDS011;8918;52.092;5.232;2023-02-15T04:10:27;30.57;;;19.03;;
17598;SDS011;8918;52.092;5.232;2023-02-15T04:13:12;33.93;;;19.40;;
17598;SDS011;8918;52.092;5.232;2023-02-15T04:15:37;35.20;;;20.60;;
17598;SDS011;8918;52.092;5.232;2023-02-15T04:18:22;34.47;;;19.30;;
17598;SDS011;8918;52.092;5.232;2023-02-15T04:21:06;32.33;;;19.20;;
17598;SDS011;8918;52.092;5.232;2023-02-15T04:23:50;33.70;;;19.37;;
17598;SDS011;8918;52.092;5.232;2023-02-15T04:26:34;33.07;;;21.07;;
17598;SDS011;8918;52.092;5.232;2023-02-15T04:29:00;31.70;;;19.37;;
17598;SDS011;8918;52.092;5.232;2023-02-15T04:31:25;32.93;;;19.73;;
17598;SDS011;8918;52.092;5.232;2023-02-15T04:33:51;31.20;;;19.47;;
17598;SDS011;8918;52.092;5.232;2023-02-15T04:36:17;35.50;;;21.10;;
17598;SDS011;8918;52.092;5.232;2023-02-15T04:38:42;31.77;;;19.97;;
17598;SDS011;8918;52.092;5.232;2023-02-15T04:41:08;35.73;;;20.07;;
17598;SDS011;8918;52.092;5.232;2023-02-15T04:43:35;35.40;;;20.53;;
17598;SDS011;8918;52.092;5.232;2023-02-15T04:46:01;33.80;;;20.10;;
17598;SDS011;8918;52.092;5.232;2023-02-15T04:48:26;31.13;;;19.47;;
17598;SDS011;8918;52.092;5.232;2023-02-15T04:50:52;35.07;;;19.93;;
17598;SDS011;8918;52.092;5.232;2023-02-15T04:53:17;32.67;;;19.53;;
17598;SDS011;8918;52.092;5.232;2023-02-15T04:55:43;30.90;;;18.87;;
17598;SDS011;8918;52.092;5.232;2023-02-15T04:58:09;35.73;;;20.67;;
17598;SDS011;8918;52.092;5.232;2023-02-15T05:00:34;33.37;;;19.30;;
17598;SDS011;8918;52.092;5.232;2023-02-15T05:03:00;30.30;;;19.23;;
17598;SDS011;8918;52.092;5.232;2023-02-15T05:05:26;33.83;;;20.83;;
17598;SDS011;8918;52.092;5.232;2023-02-15T05:07:51;32.83;;;20.03;;
17598;SDS011;8918;52.092;5.232;2023-02-15T05:10:17;31.70;;;19.13;;
17598;SDS011;8918;52.092;5.232;2023-02-15T05:12:43;31.63;;;19.00;;
17598;SDS011;8918;52.092;5.232;2023-02-15T05:15:08;29.53;;;19.30;;
17598;SDS011;8918;52.092;5.232;2023-02-15T05:17:35;32.77;;;19.47;;
17598;SDS011;8918;52.092;5.232;2023-02-15T05:20:01;34.30;;;19.70;;
17598;SDS011;8918;52.092;5.232;2023-02-15T05:22:28;34.63;;;20.67;;
17598;SDS011;8918;52.092;5.232;2023-02-15T05:24:53;29.80;;;18.30;;
17598;SDS011;8918;52.092;5.232;2023-02-15T05:27:39;32.80;;;18.63;;
17598;SDS011;8918;52.092;5.232;2023-02-15T05:30:23;32.43;;;19.00;;
17598;SDS011;8918;52.092;5.232;2023-02-15T05:32:49;32.07;;;19.17;;
17598;SDS011;8918;52.092;5.232;2023-02-15T05:35:15;30.97;;;18.70;;
17598;SDS011;8918;52.092;5.232;2023-02-15T05:37:41;31.67;;;19.27;;
17598;SDS011;8918;52.092;5.232;2023-02-15T05:40:07;32.43;;;19.17;;
17598;SDS011;8918;52.092;5.232;2023-02-15T05:42:33;35.23;;;19.13;;
17598;SDS011;8918;52.092;5.232;2023-02-15T05:44:58;31.87;;;19.50;;
17598;SDS011;8918;52.092;5.232;2023-02-15T05:47:24;34.10;;;19.97;;
17598;SDS011;8918;52.092;5.232;2023-02-15T05:49:49;30.83;;;19.37;;
17598;SDS011;8918;52.092;5.232;2023-02-15T05:52:15;35.17;;;19.47;;
17598;SDS011;8918;52.092;5.232;2023-02-15T05:54:41;30.87;;;18.50;;
17598;SDS011;8918;52.092;5.232;2023-02-15T05:57:06;33.37;;;20.23;;
17598;SDS011;8918;52.092;5.232;2023-02-15T05:59:32;33.17;;;19.20;;
17598;SDS011;8918;52.092;5.232;2023-02-15T06:01:57;32.37;;;19.63;;
17598;SDS011;8918;52.092;5.232;2023-02-15T06:04:23;32.57;;;19.23;;
17598;SDS011;8918;52.092;5.232;2023-02-15T06:06:49;33.70;;;19.83;;
17598;SDS011;8918;52.092;5.232;2023-02-15T06:09:14;32.03;;;19.63;;
17598;SDS011;8918;52.092;5.232;2023-02-15T06:11:43;32.33;;;19.97;;
17598;SDS011;8918;52.092;5.232;2023-02-15T06:14:09;32.67;;;20.03;;
17598;SDS011;8918;52.092;5.232;2023-02-15T06:16:34;33.10;;;20.00;;
17598;SDS011;8918;52.092;5.232;2023-02-15T06:19:00;35.80;;;20.50;;
17598;SDS011;8918;52.092;5.232;2023-02-15T06:21:26;36.70;;;20.87;;
17598;SDS011;8918;52.092;5.232;2023-02-15T06:23:52;35.70;;;21.63;;
17598;SDS011;8918;52.092;5.232;2023-02-15T06:26:18;34.33;;;20.30;;
17598;SDS011;8918;52.092;5.232;2023-02-15T06:28:43;34.23;;;20.40;;
17598;SDS011;8918;52.092;5.232;2023-02-15T06:31:09;37.10;;;21.77;;
17598;SDS011;8918;52.092;5.232;2023-02-15T06:33:35;35.13;;;21.43;;
17598;SDS011;8918;52.092;5.232;2023-02-15T06:36:00;36.63;;;21.40;;
17598;SDS011;8918;52.092;5.232;2023-02-15T06:38:26;43.23;;;22.37;;
17598;SDS011;8918;52.092;5.232;2023-02-15T06:40:52;38.03;;;22.37;;
17598;SDS011;8918;52.092;5.232;2023-02-15T06:43:17;43.27;;;22.37;;
17598;SDS011;8918;52.092;5.232;2023-02-15T06:45:43;40.43;;;22.03;;
17598;SDS011;8918;52.092;5.232;2023-02-15T06:48:09;38.23;;;22.80;;
17598;SDS011;8918;52.092;5.232;2023-02-15T06:50:36;40.97;;;22.83;;
17598;SDS011;8918;52.092;5.232;2023-02-15T06:53:01;39.67;;;23.30;;
17598;SDS011;8918;52.092;5.232;2023-02-15T06:55:27;41.17;;;23.13;;
17598;SDS011;8918;52.092;5.232;2023-02-15T06:57:54;41.07;;;22.37;;
17598;SDS011;8918;52.092;5.232;2023-02-15T07:00:19;40.53;;;23.30;;
17598;SDS011;8918;52.092;5.232;2023-02-15T07:02:47;41.97;;;22.03;;
17598;SDS011;8918;52.092;5.232;2023-02-15T07:05:12;43.13;;;23.43;;
17598;SDS011;8918;52.092;5.232;2023-02-15T07:07:38;42.47;;;23.00;;
17598;SDS011;8918;52.092;5.232;2023-02-15T07:10:03;39.93;;;22.53;;
17598;SDS011;8918;52.092;5.232;2023-02-15T07:12:29;44.40;;;23.20;;
17598;SDS011;8918;52.092;5.232;2023-02-15T07:15:11;37.77;;;22.13;;
17598;SDS011;8918;52.092;5.232;2023-02-15T07:17:41;39.93;;;22.80;;
17598;SDS011;8918;52.092;5.232;2023-02-15T07:20:13;42.10;;;23.60;;
17598;SDS011;8918;52.092;5.232;2023-02-15T07:22:42;41.57;;;23.27;;
17598;SDS011;8918;52.092;5.232;2023-02-15T07:25:09;43.20;;;22.70;;
17598;SDS011;8918;52.092;5.232;2023-02-15T07:27:35;41.10;;;23.87;;
17598;SDS011;8918;52.092;5.232;2023-02-15T07:30:02;38.67;;;22.50;;
17598;SDS011;8918;52.092;5.232;2023-02-15T07:32:29;40.03;;;23.40;;
17598;SDS011;8918;52.092;5.232;2023-02-15T07:34:55;38.37;;;22.50;;
17598;SDS011;8918;52.092;5.232;2023-02-15T07:37:21;42.73;;;24.73;;
17598;SDS011;8918;52.092;5.232;2023-02-15T07:39:47;40.10;;;22.87;;
17598;SDS011;8918;52.092;5.232;2023-02-15T07:42:12;45.40;;;24.50;;
17598;SDS011;8918;52.092;5.232;2023-02-15T07:44:38;44.80;;;24.37;;
17598;SDS011;8918;52.092;5.232;2023-02-15T07:47:03;41.50;;;24.53;;
17598;SDS011;8918;52.092;5.232;2023-02-15T07:49:29;42.33;;;23.13;;
17598;SDS011;8918;52.092;5.232;2023-02-15T07:51:54;40.43;;;23.73;;
17598;SDS011;8918;52.092;5.232;2023-02-15T07:54:20;38.93;;;23.43;;
17598;SDS011;8918;52.092;5.232;2023-02-15T07:56:45;40.63;;;23.57;;
17598;SDS011;8918;52.092;5.232;2023-02-15T07:59:11;47.13;;;24.37;;
17598;SDS011;8918;52.092;5.232;2023-02-15T08:01:38;41.07;;;23.63;;
17598;SDS011;8918;52.092;5.232;2023-02-15T08:04:05;39.13;;;23.23;;
17598;SDS011;8918;52.092;5.232;2023-02-15T08:06:32;37.53;;;23.27;;
17598;SDS011;8918;52.092;5.232;2023-02-15T08:08:59;43.03;;;24.87;;
17598;SDS011;8918;52.092;5.232;2023-02-15T08:11:30;38.63;;;22.90;;
17598;SDS011;8918;52.092;5.232;2023-02-15T08:14:11;41.87;;;25.27;;
17598;SDS011;8918;52.092;5.232;2023-02-15T08:16:43;42.30;;;24.93;;
17598;SDS011;8918;52.092;5.232;2023-02-15T08:19:11;39.63;;;24.30;;
17598;SDS011;8918;52.092;5.232;2023-02-15T08:21:43;43.73;;;24.70;;
17598;SDS011;8918;52.092;5.232;2023-02-15T08:24:10;40.07;;;23.60;;
17598;SDS011;8918;52.092;5.232;2023-02-15T08:26:37;44.73;;;25.00;;
17598;SDS011;8918;52.092;5.232;2023-02-15T08:29:04;42.50;;;24.30;;
17598;SDS011;8918;52.092;5.232;2023-02-15T08:31:31;41.83;;;23.70;;
17598;SDS011;8918;52.092;5.232;2023-02-15T08:33:57;40.97;;;24.20;;
17598;SDS011;8918;52.092;5.232;2023-02-15T08:36:24;40.90;;;23.90;;
17598;SDS011;8918;52.092;5.232;2023-02-15T08:38:55;39.90;;;23.63;;
17598;SDS011;8918;52.092;5.232;2023-02-15T08:41:24;40.73;;;24.33;;
17598;SDS011;8918;52.092;5.232;2023-02-15T08:43:51;41.93;;;24.57;;
17598;SDS011;8918;52.092;5.232;2023-02-15T08:46:19;43.33;;;23.97;;
17598;SDS011;8918;52.092;5.232;2023-02-15T08:48:45;41.17;;;23.53;;
17598;SDS011;8918;52.092;5.232;2023-02-15T08:51:12;42.83;;;24.77;;
17598;SDS011;8918;52.092;5.232;2023-02-15T08:53:50;42.27;;;24.83;;
17598;SDS011;8918;52.092;5.232;2023-02-15T08:56:21;43.87;;;24.07;;
17598;SDS011;8918;52.092;5.232;2023-02-15T08:58:50;42.03;;;24.47;;
17598;SDS011;8918;52.092;5.232;2023-02-15T09:01:18;42.83;;;23.80;;
17598;SDS011;8918;52.092;5.232;2023-02-15T09:03:47;42.97;;;24.13;;
17598;SDS011;8918;52.092;5.232;2023-02-15T09:06:15;42.20;;;24.77;;
17598;SDS011;8918;52.092;5.232;2023-02-15T09:08:41;41.30;;;24.63;;
17598;SDS011;8918;52.092;5.232;2023-02-15T09:11:14;41.57;;;25.17;;
17598;SDS011;8918;52.092;5.232;2023-02-15T09:13:47;38.67;;;24.33;;
17598;SDS011;8918;52.092;5.232;2023-02-15T09:16:14;41.77;;;23.97;;
17598;SDS011;8918;52.092;5.232;2023-02-15T09:18:41;42.57;;;24.93;;
17598;SDS011;8918;52.092;5.232;2023-02-15T09:21:12;39.33;;;23.37;;
17598;SDS011;8918;52.092;5.232;2023-02-15T09:23:41;42.13;;;23.73;;
17598;SDS011;8918;52.092;5.232;2023-02-15T09:26:09;42.03;;;24.10;;
17598;SDS011;8918;52.092;5.232;2023-02-15T09:28:36;41.07;;;23.73;;
17598;SDS011;8918;52.092;5.232;2023-02-15T09:31:06;39.57;;;24.27;;
17598;SDS011;8918;52.092;5.232;2023-02-15T09:33:35;41.53;;;24.73;;
17598;SDS011;8918;52.092;5.232;2023-02-15T09:36:02;43.77;;;24.63;;
17598;SDS011;8918;52.092;5.232;2023-02-15T09:38:28;39.27;;;24.20;;
17598;SDS011;8918;52.092;5.232;2023-02-15T09:41:08;39.77;;;23.70;;
17598;SDS011;8918;52.092;5.232;2023-02-15T10:23:30;32.63;;;21.47;;
17598;SDS011;8918;52.092;5.232;2023-02-15T10:26:22;34.23;;;21.33;;
17598;SDS011;8918;52.092;5.232;2023-02-15T10:29:09;32.40;;;20.33;;
17598;SDS011;8918;52.092;5.232;2023-02-15T10:31:51;35.23;;;20.87;;
17598;SDS011;8918;52.092;5.232;2023-02-15T10:34:47;34.87;;;20.83;;
17598;SDS011;8918;52.092;5.232;2023-02-15T10:40:25;33.60;;;22.17;;
17598;SDS011;8918;52.092;5.232;2023-02-15T10:47:03;36.03;;;22.03;;
17598;SDS011;8918;52.092;5.232;2023-02-15T10:57:03;37.93;;;22.93;;
17598;SDS011;8918;52.092;5.232;2023-02-15T11:05:40;34.30;;;23.07;;
17598;SDS011;8918;52.092;5.232;2023-02-15T11:08:07;38.70;;;23.80;;
17598;SDS011;8918;52.092;5.232;2023-02-15T11:10:39;37.07;;;23.20;;
17598;SDS011;8918;52.092;5.232;2023-02-15T11:13:17;34.30;;;22.97;;
17598;SDS011;8918;52.092;5.232;2023-02-15T11:18:30;36.73;;;24.07;;
17598;SDS011;8918;52.092;5.232;2023-02-15T11:21:03;38.10;;;23.57;;
17598;SDS011;8918;52.092;5.232;2023-02-15T11:23:35;36.00;;;23.20;;
17598;SDS011;8918;52.092;5.232;2023-02-15T11:26:04;38.60;;;24.00;;
17598;SDS011;8918;52.092;5.232;2023-02-15T11:28:59;41.13;;;24.37;;
17598;SDS011;8918;52.092;5.232;2023-02-15T11:31:46;37.63;;;23.73;;
17598;SDS011;8918;52.092;5.232;2023-02-15T11:34:26;37.73;;;24.80;;
17598;SDS011;8918;52.092;5.232;2023-02-15T11:37:00;37.90;;;24.80;;
17598;SDS011;8918;52.092;5.232;2023-02-15T11:39:31;38.97;;;24.00;;
17598;SDS011;8918;52.092;5.232;2023-02-15T11:42:00;38.13;;;25.10;;
17598;SDS011;8918;52.092;5.232;2023-02-15T11:44:39;35.47;;;24.40;;
17598;SDS011;8918;52.092;5.232;2023-02-15T11:47:14;37.93;;;25.50;;
17598;SDS011;8918;52.092;5.232;2023-02-15T11:49:39;37.33;;;25.00;;
17598;SDS011;8918;52.092;5.232;2023-02-15T11:52:06;38.07;;;25.27;;
17598;SDS011;8918;52.092;5.232;2023-02-15T11:54:39;36.15;;;24.63;;
17598;SDS011;8918;52.092;5.232;2023-02-15T11:57:11;36.00;;;25.10;;
17598;SDS011;8918;52.092;5.232;2023-02-15T11:59:38;38.78;;;26.20;;
17598;SDS011;8918;52.092;5.232;2023-02-15T12:02:18;37.60;;;26.20;;
17598;SDS011;8918;52.092;5.232;2023-02-15T12:04:55;37.13;;;26.40;;
17598;SDS011;8918;52.092;5.232;2023-02-15T12:10:24;37.50;;;26.73;;
17598;SDS011;8918;52.092;5.232;2023-02-15T12:13:12;36.65;;;26.90;;
17598;SDS011;8918;52.092;5.232;2023-02-15T12:15:43;40.10;;;26.60;;
17598;SDS011;8918;52.092;5.232;2023-02-15T12:20:43;43.75;;;27.23;;
17598;SDS011;8918;52.092;5.232;2023-02-15T12:23:12;40.53;;;27.42;;
17598;SDS011;8918;52.092;5.232;2023-02-15T12:25:42;40.15;;;26.92;;
17598;SDS011;8918;52.092;5.232;2023-02-15T12:28:26;39.05;;;26.38;;
17598;SDS011;8918;52.092;5.232;2023-02-15T12:31:19;40.35;;;26.50;;
17598;SDS011;8918;52.092;5.232;2023-02-15T12:33:47;38.75;;;26.83;;
17598;SDS011;8918;52.092;5.232;2023-02-15T12:36:19;40.50;;;28.05;;
17598;SDS011;8918;52.092;5.232;2023-02-15T12:39:05;38.50;;;28.58;;
17598;SDS011;8918;52.092;5.232;2023-02-15T12:41:37;40.60;;;27.90;;
17598;SDS011;8918;52.092;5.232;2023-02-15T12:44:18;38.35;;;27.40;;
17598;SDS011;8918;52.092;5.232;2023-02-15T12:46:58;38.38;;;27.58;;
17598;SDS011;8918;52.092;5.232;2023-02-15T12:49:26;41.50;;;29.88;;
17598;SDS011;8918;52.092;5.232;2023-02-15T12:52:00;41.35;;;29.02;;
17598;SDS011;8918;52.092;5.232;2023-02-15T12:54:40;41.15;;;28.80;;
17598;SDS011;8918;52.092;5.232;2023-02-15T12:59:58;44.28;;;30.77;;
17598;SDS011;8918;52.092;5.232;2023-02-15T13:02:25;42.67;;;28.95;;
17598;SDS011;8918;52.092;5.232;2023-02-15T13:04:55;41.63;;;29.27;;
17598;SDS011;8918;52.092;5.232;2023-02-15T13:07:23;43.90;;;30.08;;
17598;SDS011;8918;52.092;5.232;2023-02-15T13:09:54;42.90;;;29.55;;
17598;SDS011;8918;52.092;5.232;2023-02-15T13:12:23;44.80;;;30.40;;
17598;SDS011;8918;52.092;5.232;2023-02-15T13:14:55;41.80;;;29.95;;
17598;SDS011;8918;52.092;5.232;2023-02-15T13:17:24;45.63;;;29.90;;
17598;SDS011;8918;52.092;5.232;2023-02-15T13:19:54;43.73;;;29.43;;
17598;SDS011;8918;52.092;5.232;2023-02-15T13:22:39;43.10;;;28.85;;
17598;SDS011;8918;52.092;5.232;2023-02-15T13:25:17;44.75;;;29.42;;
17598;SDS011;8918;52.092;5.232;2023-02-15T13:27:51;45.47;;;29.35;;
17598;SDS011;8918;52.092;5.232;2023-02-15T13:30:24;45.65;;;30.10;;
17598;SDS011;8918;52.092;5.232;2023-02-15T13:32:54;44.67;;;28.90;;
17598;SDS011;8918;52.092;5.232;2023-02-15T13:35:23;43.10;;;29.03;;
17598;SDS011;8918;52.092;5.232;2023-02-15T13:38:02;43.33;;;29.67;;
17598;SDS011;8918;52.092;5.232;2023-02-15T13:40:33;42.37;;;29.00;;
17598;SDS011;8918;52.092;5.232;2023-02-15T14:01:57;43.80;;;28.57;;
17598;SDS011;8918;52.092;5.232;2023-02-15T14:12:58;49.50;;;30.90;;
17598;SDS011;8918;52.092;5.232;2023-02-15T14:18:24;49.70;;;30.03;;
17598;SDS011;8918;52.092;5.232;2023-02-15T14:23:42;49.03;;;30.77;;
17598;SDS011;8918;52.092;5.232;2023-02-15T14:29:17;41.53;;;28.37;;
17598;SDS011;8918;52.092;5.232;2023-02-15T14:32:11;42.33;;;28.93;;
17598;SDS011;8918;52.092;5.232;2023-02-15T14:34:44;42.87;;;29.57;;
17598;SDS011;8918;52.092;5.232;2023-02-15T14:37:16;46.57;;;30.67;;
17598;SDS011;8918;52.092;5.232;2023-02-15T14:39:52;46.67;;;30.03;;
17598;SDS011;8918;52.092;5.232;2023-02-15T14:42:50;46.53;;;29.20;;
17598;SDS011;8918;52.092;5.232;2023-02-15T14:45:30;47.60;;;28.93;;
17598;SDS011;8918;52.092;5.232;2023-02-15T14:50:50;45.50;;;28.33;;
17598;SDS011;8918;52.092;5.232;2023-02-15T14:53:17;43.90;;;28.40;;
17598;SDS011;8918;52.092;5.232;2023-02-15T15:01:24;46.17;;;29.33;;
17598;SDS011;8918;52.092;5.232;2023-02-15T15:03:53;48.70;;;29.27;;
17598;SDS011;8918;52.092;5.232;2023-02-15T15:06:31;44.43;;;28.97;;
17598;SDS011;8918;52.092;5.232;2023-02-15T15:09:00;46.10;;;29.80;;
17598;SDS011;8918;52.092;5.232;2023-02-15T15:11:40;44.97;;;30.07;;
17598;SDS011;8918;52.092;5.232;2023-02-15T15:14:07;47.93;;;29.87;;
17598;SDS011;8918;52.092;5.232;2023-02-15T15:19:11;48.20;;;28.87;;
17598;SDS011;8918;52.092;5.232;2023-02-15T15:22:02;45.87;;;28.73;;
17598;SDS011;8918;52.092;5.232;2023-02-15T15:46:33;42.47;;;28.63;;
17598;SDS011;8918;52.092;5.232;2023-02-15T15:49:24;46.10;;;29.17;;
17598;SDS011;8918;52.092;5.232;2023-02-15T15:51:59;44.90;;;28.60;;
17598;SDS011;8918;52.092;5.232;2023-02-15T15:54:27;47.17;;;29.37;;
17598;SDS011;8918;52.092;5.232;2023-02-15T15:56:55;44.83;;;29.13;;
17598;SDS011;8918;52.092;5.232;2023-02-15T15:59:27;46.83;;;29.97;;
17598;SDS011;8918;52.092;5.232;2023-02-15T16:01:55;45.63;;;29.13;;
17598;SDS011;8918;52.092;5.232;2023-02-15T16:04:25;44.97;;;29.23;;
17598;SDS011;8918;52.092;5.232;2023-02-15T16:06:54;43.07;;;29.03;;
17598;SDS011;8918;52.092;5.232;2023-02-15T16:11:52;44.13;;;28.40;;
17598;SDS011;8918;52.092;5.232;2023-02-15T16:14:29;47.20;;;29.47;;
17598;SDS011;8918;52.092;5.232;2023-02-15T16:16:58;43.53;;;29.23;;
17598;SDS011;8918;52.092;5.232;2023-02-15T16:19:29;44.60;;;29.37;;
17598;SDS011;8918;52.092;5.232;2023-02-15T16:22:01;43.53;;;28.27;;
17598;SDS011;8918;52.092;5.232;2023-02-15T16:27:40;45.60;;;28.33;;
17598;SDS011;8918;52.092;5.232;2023-02-15T16:33:03;48.23;;;29.80;;
17598;SDS011;8918;52.092;5.232;2023-02-15T16:35:29;49.00;;;29.63;;
17598;SDS011;8918;52.092;5.232;2023-02-15T16:37:55;46.80;;;29.23;;
17598;SDS011;8918;52.092;5.232;2023-02-15T16:42:56;51.03;;;31.13;;
17598;SDS011;8918;52.092;5.232;2023-02-15T16:45:27;47.30;;;29.70;;
17598;SDS011;8918;52.092;5.232;2023-02-15T16:47:56;49.97;;;29.90;;
17598;SDS011;8918;52.092;5.232;2023-02-15T16:50:32;50.00;;;31.60;;
17598;SDS011;8918;52.092;5.232;2023-02-15T16:52:59;49.27;;;30.83;;
17598;SDS011;8918;52.092;5.232;2023-02-15T16:55:27;48.33;;;31.03;;
17598;SDS011;8918;52.092;5.232;2023-02-15T16:58:02;51.43;;;31.63;;
17598;SDS011;8918;52.092;5.232;2023-02-15T17:00:31;51.20;;;29.53;;
17598;SDS011;8918;52.092;5.232;2023-02-15T17:03:42;50.30;;;30.70;;
17598;SDS011;8918;52.092;5.232;2023-02-15T17:05:50;49.03;;;31.17;;
17598;SDS011;8918;52.092;5.232;2023-02-15T17:14:10;50.97;;;31.27;;
17598;SDS011;8918;52.092;5.232;2023-02-15T17:16:29;48.10;;;30.10;;
17598;SDS011;8918;52.092;5.232;2023-02-15T17:18:58;51.20;;;30.27;;
17598;SDS011;8918;52.092;5.232;2023-02-15T17:21:39;45.30;;;28.93;;
17598;SDS011;8918;52.092;5.232;2023-02-15T17:24:13;48.10;;;30.30;;
17598;SDS011;8918;52.092;5.232;2023-02-15T17:26:42;49.63;;;30.20;;
17598;SDS011;8918;52.092;5.232;2023-02-15T17:31:54;49.47;;;30.60;;
17598;SDS011;8918;52.092;5.232;2023-02-15T17:34:41;51.87;;;30.57;;
17598;SDS011;8918;52.092;5.232;2023-02-15T17:37:13;44.87;;;29.13;;
17598;SDS011;8918;52.092;5.232;2023-02-15T17:39:49;49.17;;;30.23;;
17598;SDS011;8918;52.092;5.232;2023-02-15T17:42:15;47.13;;;28.97;;
17598;SDS011;8918;52.092;5.232;2023-02-15T17:44:40;51.37;;;29.67;;
17598;SDS011;8918;52.092;5.232;2023-02-15T17:47:06;47.50;;;29.80;;
17598;SDS011;8918;52.092;5.232;2023-02-15T17:49:31;48.63;;;30.40;;
17598;SDS011;8918;52.092;5.232;2023-02-15T17:52:02;51.13;;;30.43;;
17598;SDS011;8918;52.092;5.232;2023-02-15T17:54:28;49.93;;;29.87;;
17598;SDS011;8918;52.092;5.232;2023-02-15T17:57:13;53.33;;;34.30;;
17598;SDS011;8918;52.092;5.232;2023-02-15T17:59:40;57.67;;;33.80;;
17598;SDS011;8918;52.092;5.232;2023-02-15T18:02:24;53.07;;;32.67;;
17598;SDS011;8918;52.092;5.232;2023-02-15T18:05:11;51.43;;;32.77;;